createdAt,value
2023-04-19T00:04:51.088Z,99804.41
2023-04-19T00:09:54.219Z,99800.53
2023-04-19T00:14:57.115Z,99798.63
2023-04-19T00:20:01.897Z,99794.41
2023-04-19T00:25:05.184Z,99783.88
2023-04-19T00:30:09.020Z,99785.22
2023-04-19T00:35:13.325Z,99783.03
2023-04-19T00:40:16.341Z,99772.09
2023-04-19T00:45:19.325Z,99775.72
2023-04-19T00:50:23.956Z,99772.59
2023-04-19T00:55:27.051Z,99776.56
2023-04-19T01:00:30.110Z,99765.56
2023-04-19T01:05:34.384Z,99763.50
2023-04-19T01:10:37.319Z,99761.06
2023-04-19T01:15:40.307Z,99754.72
2023-04-19T01:20:44.616Z,99747.81
2023-04-19T01:25:48.871Z,99744.22
2023-04-19T01:30:53.845Z,99741.16
2023-04-19T01:35:56.808Z,99743.69
2023-04-19T01:41:01.100Z,99737.13
2023-04-19T01:46:03.999Z,99735.88
2023-04-19T01:51:07.102Z,99734.97
2023-04-19T01:56:12.713Z,99739.59
2023-04-19T02:01:15.752Z,99730.69
2023-04-19T02:06:18.855Z,99729.06
2023-04-19T02:11:23.111Z,99729.22
2023-04-19T02:16:26.116Z,99722.69
2023-04-19T02:21:29.172Z,99731.41
2023-04-19T02:26:33.476Z,99718.19
2023-04-19T02:31:37.866Z,99725.59
2023-04-19T02:36:40.862Z,99709.72
2023-04-19T02:41:45.081Z,99717.53
2023-04-19T02:46:49.987Z,99705.09
2023-04-19T02:51:53.319Z,99706.13
2023-04-19T02:56:57.793Z,99702.28
2023-04-19T03:02:00.982Z,99694.81
2023-04-19T03:07:04.091Z,99699.16
2023-04-19T03:12:09.321Z,99691.28
2023-04-19T03:17:12.413Z,99684.34
2023-04-19T03:22:15.395Z,99689.16
2023-04-19T03:27:20.251Z,99669.47
2023-04-19T03:32:28.557Z,99665.34
2023-04-19T03:37:31.527Z,99659.91
2023-04-19T03:42:36.549Z,99658.84
2023-04-19T03:48:03.153Z,99646.88
2023-04-19T03:53:06.993Z,99642.97
2023-04-19T03:58:12.032Z,99638.59
2023-04-19T04:03:24.349Z,99643.06
2023-04-19T04:08:27.590Z,99654.00
2023-04-19T04:13:31.856Z,99651.25
2023-04-19T04:18:49.479Z,99650.09
2023-04-19T04:23:53.261Z,99648.72
2023-04-19T04:29:06.786Z,99661.09
2023-04-19T04:34:10.838Z,99666.59
2023-04-19T04:39:22.784Z,99663.59
2023-04-19T04:49:31.543Z,99652.97
2023-04-19T04:54:34.983Z,99650.41
2023-04-19T04:59:39.392Z,99661.81
2023-04-19T05:04:42.675Z,99654.53
2023-04-19T05:09:46.424Z,99656.03
2023-04-19T05:14:55.415Z,99653.13
2023-04-19T05:19:58.558Z,99648.47
2023-04-19T05:25:02.194Z,99646.22
2023-04-19T05:30:08.210Z,99656.31
2023-04-19T05:35:15.936Z,99652.78
2023-04-19T05:40:20.358Z,99648.16
2023-04-19T05:45:24.998Z,99654.41
2023-04-19T05:50:28.468Z,99655.56
2023-04-19T05:56:09.626Z,99648.50
2023-04-19T06:01:14.014Z,99666.72
2023-04-19T06:06:17.207Z,99658.13
2023-04-19T06:11:28.726Z,99663.69
2023-04-19T06:16:35.989Z,99665.47
2023-04-19T06:21:39.135Z,99654.28
2023-04-19T06:26:42.097Z,99659.19
2023-04-19T06:31:46.785Z,99649.25
2023-04-19T06:36:49.700Z,99638.84
2023-04-19T06:41:52.717Z,99643.69
2023-04-19T06:46:56.972Z,99657.72
2023-04-19T06:52:01.680Z,99655.88
2023-04-19T06:57:04.569Z,99654.72
2023-04-19T07:02:09.252Z,99651.00
2023-04-19T07:07:12.248Z,99644.53
2023-04-19T07:12:15.138Z,99630.16
2023-04-19T07:17:19.848Z,99617.59
2023-04-19T07:22:23.321Z,99607.59
2023-04-19T07:27:26.331Z,99620.28
2023-04-19T07:32:32.026Z,99605.28
2023-04-19T07:37:36.135Z,99599.19
2023-04-19T07:42:39.042Z,99600.94
2023-04-19T07:47:43.328Z,99599.72
2023-04-19T07:52:46.241Z,99602.06
2023-04-19T07:57:49.187Z,99589.13
2023-04-19T08:02:53.686Z,99587.16
2023-04-19T08:07:56.837Z,99590.03
2023-04-19T08:13:05.870Z,99588.44
2023-04-19T08:18:11.115Z,99592.03
2023-04-19T08:23:22.957Z,99588.03
2023-04-19T08:28:28.856Z,99583.03
2023-04-19T08:33:33.088Z,99586.75
2023-04-19T08:38:36.021Z,99566.78
2023-04-19T08:43:40.547Z,99570.81
2023-04-19T08:48:48.431Z,99565.66
2023-04-19T08:53:52.723Z,99571.63
2023-04-19T09:04:17.014Z,99555.13
2023-04-19T09:14:33.499Z,99537.34
2023-04-19T09:19:47.821Z,99538.31
2023-04-19T09:29:59.166Z,99527.72
2023-04-19T09:35:03.982Z,99523.13
2023-04-19T09:40:25.054Z,99525.72
2023-04-19T09:45:30.658Z,99515.88
2023-04-19T09:50:46.220Z,99509.53
2023-04-19T09:56:02.170Z,99497.03
2023-04-19T10:01:14.751Z,99515.88
2023-04-19T10:11:28.161Z,99495.31
2023-04-19T10:16:32.697Z,99494.34
2023-04-19T10:21:38.157Z,99484.88
2023-04-19T10:27:11.363Z,99470.25
2023-04-19T10:32:14.666Z,99467.59
2023-04-19T10:37:22.646Z,99460.97
2023-04-19T10:42:25.570Z,99469.13
2023-04-19T10:47:42.424Z,99463.63
2023-04-19T10:52:46.772Z,99472.06
2023-04-19T10:58:06.338Z,99464.06
2023-04-19T11:03:42.983Z,99461.88
2023-04-19T11:08:47.856Z,99448.66
2023-04-19T11:13:51.268Z,99445.09
2023-04-19T11:18:54.131Z,99436.09
2023-04-19T11:24:11.118Z,99432.50
2023-04-19T11:29:14.157Z,99424.31
2023-04-19T11:34:17.428Z,99415.72
2023-04-19T11:39:22.424Z,99409.09
2023-04-19T11:44:25.391Z,99409.63
2023-04-19T11:49:29.509Z,99423.81
2023-04-19T11:54:34.172Z,99423.47
2023-04-19T11:59:37.751Z,99419.56
2023-04-19T12:04:41.163Z,99415.63
2023-04-19T12:09:50.192Z,99415.22
2023-04-19T12:14:53.596Z,99420.50
2023-04-19T12:19:56.481Z,99417.00
2023-04-19T12:25:00.753Z,99401.16
2023-04-19T12:30:07.025Z,99404.03
2023-04-19T12:35:11.090Z,99399.97
2023-04-19T12:40:16.402Z,99387.63
2023-04-19T12:45:20.187Z,99384.66
2023-04-19T12:50:23.257Z,99384.94
2023-04-19T12:55:27.708Z,99399.13
2023-04-19T13:00:31.163Z,99380.88
2023-04-19T13:05:34.113Z,99370.56
2023-04-19T13:10:38.483Z,99357.22
2023-04-19T13:15:42.052Z,99356.28
2023-04-19T13:20:45.016Z,99352.06
2023-04-19T13:25:49.325Z,99352.44
2023-04-19T13:30:52.548Z,99339.94
2023-04-19T13:35:55.784Z,99322.97
2023-04-19T13:41:00.773Z,99324.44
2023-04-19T13:46:03.769Z,99299.53
2023-04-19T13:51:07.795Z,99288.97
2023-04-19T13:56:12.142Z,99284.19
2023-04-19T14:01:15.292Z,99300.47
2023-04-19T14:06:18.253Z,99293.59
2023-04-19T14:11:23.439Z,99326.31
2023-04-19T14:16:26.486Z,99347.72
2023-04-19T14:21:29.491Z,99345.44
2023-04-19T14:26:33.896Z,99352.69
2023-04-19T14:31:36.815Z,99346.41
2023-04-19T14:36:39.795Z,99359.41
2023-04-19T14:41:44.553Z,99353.06
2023-04-19T14:46:47.447Z,99353.84
2023-04-19T14:51:50.342Z,99341.59
2023-04-19T14:56:54.644Z,99357.03
2023-04-19T15:01:57.846Z,99368.25
2023-04-19T15:07:00.920Z,99363.22
2023-04-19T15:12:05.886Z,99358.00
2023-04-19T15:17:08.796Z,99367.59
2023-04-19T15:22:11.714Z,99362.72
2023-04-19T15:27:16.081Z,99381.16
2023-04-19T15:32:21.566Z,99383.28
2023-04-19T15:37:24.813Z,99380.69
2023-04-19T15:42:29.133Z,99388.34
2023-04-19T15:47:32.101Z,99386.72
2023-04-19T15:52:35.496Z,99363.81
2023-04-19T15:57:39.885Z,99363.00
2023-04-19T16:02:43.287Z,99383.03
2023-04-19T16:07:46.773Z,99384.72
2023-04-19T16:12:51.072Z,99378.66
2023-04-19T16:17:54.132Z,99369.59
2023-04-19T16:22:58.742Z,99367.34
2023-04-19T16:28:03.082Z,99360.78
2023-04-19T16:33:07.575Z,99352.19
2023-04-19T16:38:10.856Z,99350.50
2023-04-19T16:43:15.139Z,99341.97
2023-04-19T16:48:18.158Z,99334.25
2023-04-19T16:53:21.243Z,99332.91
2023-04-19T16:58:25.473Z,99323.47
2023-04-19T17:03:30.284Z,99324.81
2023-04-19T17:08:34.243Z,99319.16
2023-04-19T17:13:38.816Z,99315.88
2023-04-19T17:18:41.830Z,99326.75
2023-04-19T17:23:46.188Z,99323.69
2023-04-19T17:28:50.634Z,99320.53
2023-04-19T17:33:53.665Z,99313.91
2023-04-19T17:38:57.836Z,99325.38
2023-04-19T17:44:02.778Z,99320.16
2023-04-19T17:49:06.111Z,99319.81
2023-04-19T17:54:09.082Z,99316.56
2023-04-19T17:59:13.446Z,99314.03
2023-04-19T18:04:20.132Z,99315.28
2023-04-19T18:09:23.189Z,99325.50
2023-04-19T18:14:27.473Z,99326.88
2023-04-19T18:19:30.447Z,99333.34
2023-04-19T18:24:33.452Z,99331.16
2023-04-19T18:29:37.814Z,99322.81
2023-04-19T18:34:40.784Z,99327.28
2023-04-19T18:39:43.892Z,99326.94
2023-04-19T18:50:04.439Z,99328.47
2023-04-19T18:55:10.757Z,99330.75
2023-04-19T19:00:16.115Z,99329.50
2023-04-19T19:05:19.119Z,99328.03
2023-04-19T19:10:26.605Z,99329.53
2023-04-19T19:15:46.449Z,99329.16
2023-04-19T19:20:51.358Z,99337.69
2023-04-19T19:25:54.469Z,99324.78
2023-04-19T19:30:58.809Z,99334.38
2023-04-19T19:36:01.821Z,99339.59
2023-04-19T19:46:14.038Z,99324.84
2023-04-19T19:51:44.221Z,99329.41
2023-04-19T19:56:55.640Z,99331.72
2023-04-19T20:02:04.521Z,99320.22
2023-04-19T20:07:32.491Z,99314.28
2023-04-19T20:12:30.398Z,99309.69
2023-04-19T20:17:34.951Z,99312.94
2023-04-19T20:22:38.045Z,99311.47
2023-04-19T20:27:40.964Z,99316.69
2023-04-19T20:32:45.442Z,99305.94
2023-04-19T20:37:48.493Z,99312.75
2023-04-19T20:42:51.531Z,99306.75
2023-04-19T20:47:55.849Z,99311.91
2023-04-19T20:52:58.818Z,99311.84
2023-04-19T20:58:02.531Z,99308.34
2023-04-19T21:03:07.945Z,99313.88
2023-04-19T21:08:11.093Z,99310.25
2023-04-19T21:13:13.994Z,99311.63
2023-04-19T21:18:18.584Z,99306.41
2023-04-19T21:23:21.470Z,99307.44
2023-04-19T21:28:24.938Z,99304.50
2023-04-19T21:33:29.288Z,99302.91
2023-04-19T21:38:32.198Z,99301.47
2023-04-19T21:43:35.673Z,99307.25
2023-04-19T21:48:40.065Z,99305.56
2023-04-19T21:53:42.914Z,99310.75
2023-04-19T21:58:45.893Z,99308.19
2023-04-19T22:03:50.473Z,99302.66
2023-04-19T22:08:53.711Z,99305.78
2023-04-19T22:13:56.752Z,99319.97
2023-04-19T22:19:01.372Z,99306.94
2023-04-19T22:24:04.694Z,99304.19
2023-04-19T22:29:07.641Z,99310.56
2023-04-19T22:34:11.924Z,99299.53
2023-04-19T22:39:16.122Z,99298.06
2023-04-19T22:44:19.292Z,99292.22
2023-04-19T22:49:24.033Z,99295.19
2023-04-19T22:54:27.191Z,99295.91
2023-04-19T22:59:30.176Z,99290.50
2023-04-19T23:04:36.089Z,99296.97
2023-04-19T23:09:39.489Z,99289.53
2023-04-19T23:14:42.561Z,99293.47
2023-04-19T23:19:46.841Z,99286.03
2023-04-19T23:24:49.783Z,99295.91
2023-04-19T23:29:52.667Z,99289.91
2023-04-19T23:34:57.012Z,99293.22
2023-04-19T23:40:00.061Z,99299.03
2023-04-19T23:45:02.948Z,99295.16
2023-04-19T23:50:08.409Z,99286.53
2023-04-19T23:55:11.350Z,99285.75
